createdAt,value
2018-12-20T00:01:36.968Z,100776.84
2018-12-20T00:04:04.638Z,100772.59
2018-12-20T00:06:32.346Z,100773.91
2018-12-20T00:08:59.953Z,100772.25
2018-12-20T00:11:28.132Z,100773.12
2018-12-20T00:13:55.734Z,100762.48
2018-12-20T00:16:23.622Z,100761.59
2018-12-20T00:18:51.162Z,100766.70
2018-12-20T00:21:18.749Z,100758.17
2018-12-20T00:23:46.356Z,100752.20
2018-12-20T00:26:13.856Z,100748.37
2018-12-20T00:28:41.535Z,100751.78
2018-12-20T00:31:13.556Z,100754.34
2018-12-20T00:33:38.841Z,100756.48
2018-12-20T00:36:06.712Z,100761.62
2018-12-20T00:38:34.416Z,100766.80
2018-12-20T00:41:02.129Z,100760.82
2018-12-20T00:43:29.797Z,100763.79
2018-12-20T00:45:57.336Z,100768.48
2018-12-20T00:48:24.976Z,100766.80
2018-12-20T00:50:54.189Z,100759.55
2018-12-20T00:53:21.782Z,100761.72
2018-12-20T00:55:49.314Z,100767.21
2018-12-20T00:58:16.866Z,100767.21
2018-12-20T01:00:44.374Z,100762.96
2018-12-20T01:03:12.225Z,100761.72
2018-12-20T01:05:39.836Z,100767.62
2018-12-20T01:08:07.646Z,100765.07
2018-12-20T01:10:35.188Z,100768.52
2018-12-20T01:13:02.804Z,100771.04
2018-12-20T01:15:30.324Z,100768.48
2018-12-20T01:17:58.077Z,100768.48
2018-12-20T01:20:25.620Z,100770.18
2018-12-20T01:22:53.146Z,100768.91
2018-12-20T01:25:21.580Z,100774.45
2018-12-20T01:27:49.289Z,100777.02
2018-12-20T01:30:17.095Z,100780.40
2018-12-20T01:32:44.708Z,100773.98
2018-12-20T01:35:12.367Z,100780.40
2018-12-20T01:37:39.896Z,100774.81
2018-12-20T01:40:07.448Z,100773.98
2018-12-20T01:42:34.990Z,100774.45
2018-12-20T01:45:02.472Z,100774.05
2018-12-20T01:47:30.292Z,100771.94
2018-12-20T01:49:57.762Z,100761.23
2018-12-20T01:52:25.357Z,100769.83
2018-12-20T01:54:53.090Z,100775.39
2018-12-20T01:57:21.251Z,100763.02
2018-12-20T01:59:49.000Z,100760.44
2018-12-20T02:02:17.589Z,100764.30
2018-12-20T02:04:45.493Z,100769.48
2018-12-20T02:07:12.968Z,100762.64
2018-12-20T02:09:41.463Z,100769.03
2018-12-20T02:12:09.028Z,100758.84
2018-12-20T02:14:36.572Z,100763.98
2018-12-20T02:17:04.267Z,100761.42
2018-12-20T02:19:31.787Z,100762.28
2018-12-20T02:21:59.770Z,100767.34
2018-12-20T02:24:27.697Z,100769.89
2018-12-20T02:29:56.167Z,100757.18
2018-12-20T02:32:24.042Z,100759.29
2018-12-20T02:34:52.156Z,100751.63
2018-12-20T02:37:19.948Z,100749.06
2018-12-20T02:39:47.555Z,100746.95
2018-12-20T02:42:15.084Z,100747.02
2018-12-20T02:44:42.678Z,100746.09
2018-12-20T02:47:10.396Z,100751.53
2018-12-20T02:49:38.142Z,100751.11
2018-12-20T02:52:05.915Z,100762.20
2018-12-20T02:54:33.476Z,100755.84
2018-12-20T02:57:01.150Z,100749.45
2018-12-20T02:59:28.751Z,100734.98
2018-12-20T03:01:56.570Z,100742.27
2018-12-20T03:04:24.276Z,100746.51
2018-12-20T03:06:51.875Z,100743.53
2018-12-20T03:09:19.343Z,100742.27
2018-12-20T03:11:46.951Z,100739.64
2018-12-20T03:14:14.849Z,100733.31
2018-12-20T03:16:42.633Z,100737.59
2018-12-20T03:19:10.192Z,100731.17
2018-12-20T03:21:37.804Z,100722.27
2018-12-20T03:24:05.603Z,100714.59
2018-12-20T03:26:33.556Z,100715.81
2018-12-20T03:29:01.416Z,100711.54
2018-12-20T03:31:29.740Z,100722.20
2018-12-20T03:33:57.335Z,100723.48
2018-12-20T03:36:25.219Z,100718.31
2018-12-20T03:38:53.072Z,100723.00
2018-12-20T03:41:20.975Z,100712.31
2018-12-20T03:43:48.586Z,100710.20
2018-12-20T03:46:16.132Z,100714.86
2018-12-20T03:48:43.629Z,100715.28
2018-12-20T03:51:11.094Z,100719.59
2018-12-20T03:53:38.961Z,100719.56
2018-12-20T03:56:06.587Z,100713.59
2018-12-20T03:58:34.123Z,100717.42
2018-12-20T04:01:01.681Z,100711.00
2018-12-20T04:03:29.272Z,100721.16
2018-12-20T04:05:56.886Z,100721.13
2018-12-20T04:08:24.638Z,100729.66
2018-12-20T04:10:52.272Z,100723.65
2018-12-20T04:13:19.883Z,100727.90
2018-12-20T04:15:47.550Z,100727.00
2018-12-20T04:18:15.172Z,100724.86
2018-12-20T04:20:42.918Z,100726.14
2018-12-20T04:23:10.502Z,100733.39
2018-12-20T04:25:38.223Z,100730.83
2018-12-20T04:28:05.811Z,100731.66
2018-12-20T04:30:33.507Z,100737.19
2018-12-20T04:33:01.002Z,100731.56
2018-12-20T04:35:28.569Z,100734.09
2018-12-20T04:37:56.106Z,100735.36
2018-12-20T04:40:23.708Z,100731.98
2018-12-20T04:42:51.385Z,100735.36
2018-12-20T04:45:19.331Z,100734.56
2018-12-20T04:47:47.089Z,100723.88
2018-12-20T04:50:14.688Z,100721.34
2018-12-20T04:52:42.824Z,100720.52
2018-12-20T04:55:10.441Z,100716.31
2018-12-20T04:57:38.039Z,100712.86
2018-12-20T05:00:08.043Z,100713.72
2018-12-20T05:02:35.631Z,100723.97
2018-12-20T05:05:03.196Z,100724.00
2018-12-20T05:07:30.880Z,100722.73
2018-12-20T05:09:58.436Z,100726.59
2018-12-20T05:12:25.920Z,100724.89
2018-12-20T05:14:53.686Z,100721.92
2018-12-20T05:17:21.441Z,100719.75
2018-12-20T05:19:48.972Z,100723.66
2018-12-20T05:22:16.649Z,100717.27
2018-12-20T05:24:44.333Z,100723.66
2018-12-20T05:27:12.143Z,100727.90
2018-12-20T05:29:39.592Z,100713.88
2018-12-20T05:32:07.066Z,100706.66
2018-12-20T05:34:34.602Z,100714.33
2018-12-20T05:37:02.072Z,100711.77
2018-12-20T05:39:29.884Z,100707.94
2018-12-20T05:41:57.659Z,100708.77
2018-12-20T05:44:25.241Z,100705.70
2018-12-20T05:46:52.868Z,100709.13
2018-12-20T05:49:20.345Z,100715.09
2018-12-20T05:51:47.799Z,100717.68
2018-12-20T05:54:16.309Z,100709.22
2018-12-20T05:56:43.958Z,100709.63
2018-12-20T05:59:11.453Z,100713.05
2018-12-20T06:01:39.007Z,100710.49
2018-12-20T06:04:06.493Z,100713.47
2018-12-20T06:06:33.965Z,100717.33
2018-12-20T06:09:01.417Z,100716.91
2018-12-20T06:11:29.513Z,100718.19
2018-12-20T06:13:57.005Z,100715.63
2018-12-20T06:16:24.459Z,100716.08
2018-12-20T06:18:52.155Z,100714.77
2018-12-20T06:21:19.832Z,100710.43
2018-12-20T06:23:47.307Z,100710.43
2018-12-20T06:26:14.750Z,100711.30
2018-12-20T06:28:42.272Z,100710.88
2018-12-20T06:31:09.865Z,100710.88
2018-12-20T06:33:37.347Z,100723.62
2018-12-20T06:36:04.819Z,100721.03
2018-12-20T06:38:32.334Z,100720.65
2018-12-20T06:40:59.834Z,100721.55
2018-12-20T06:43:27.276Z,100727.12
2018-12-20T06:45:55.185Z,100718.22
2018-12-20T06:48:22.672Z,100719.88
2018-12-20T06:50:50.125Z,100719.41
2018-12-20T06:53:17.632Z,100715.60
2018-12-20T06:55:45.202Z,100709.54
2018-12-20T06:58:12.816Z,100722.34
2018-12-20T07:00:41.082Z,100718.95
2018-12-20T07:03:09.609Z,100722.85
2018-12-20T07:05:37.151Z,100729.23
2018-12-20T07:08:05.526Z,100731.34
2018-12-20T07:10:32.996Z,100730.09
2018-12-20T07:13:00.463Z,100721.67
2018-12-20T07:15:27.950Z,100726.81
2018-12-20T07:17:55.390Z,100726.84
2018-12-20T07:20:22.830Z,100727.73
2018-12-20T07:22:50.292Z,100728.17
2018-12-20T07:25:17.806Z,100726.92
2018-12-20T07:27:45.268Z,100723.89
2018-12-20T07:30:13.152Z,100718.78
2018-12-20T07:32:40.672Z,100721.76
2018-12-20T07:35:08.312Z,100722.20
2018-12-20T07:37:35.798Z,100721.34
2018-12-20T07:40:04.114Z,100714.98
2018-12-20T07:42:31.622Z,100715.07
2018-12-20T07:44:59.117Z,100715.07
2018-12-20T07:47:26.634Z,100718.45
2018-12-20T07:49:54.073Z,100720.62
2018-12-20T07:52:21.550Z,100719.79
2018-12-20T07:54:49.550Z,100723.23
2018-12-20T07:57:17.151Z,100724.48
2018-12-20T07:59:45.652Z,100715.57
2018-12-20T08:02:13.267Z,100722.82
2018-12-20T08:04:40.898Z,100722.02
2018-12-20T08:07:08.386Z,100726.27
2018-12-20T08:09:35.959Z,100728.43
2018-12-20T08:12:03.512Z,100733.13
2018-12-20T08:14:30.968Z,100730.12
2018-12-20T08:16:58.478Z,100734.41
2018-12-20T08:19:25.959Z,100733.96
2018-12-20T08:21:53.474Z,100736.96
2018-12-20T08:24:21.161Z,100735.71
2018-12-20T08:26:48.668Z,100741.69
2018-12-20T08:29:16.478Z,100742.58
2018-12-20T08:31:43.996Z,100740.09
2018-12-20T08:34:11.439Z,100746.52
2018-12-20T08:36:38.980Z,100744.81
2018-12-20T08:39:07.264Z,100744.38
2018-12-20T08:41:34.796Z,100745.55
2018-12-20T08:44:02.529Z,100747.77
2018-12-20T08:46:31.753Z,100748.55
2018-12-20T08:48:59.681Z,100751.10
2018-12-20T08:51:27.256Z,100746.88
2018-12-20T08:53:55.062Z,100746.02
2018-12-20T08:56:22.615Z,100756.25
2018-12-20T08:58:50.140Z,100756.66
2018-12-20T09:01:19.152Z,100760.55
2018-12-20T09:03:46.675Z,100763.50
2018-12-20T09:06:14.190Z,100762.55
2018-12-20T09:08:41.700Z,100768.53
2018-12-20T09:11:09.169Z,100765.95
2018-12-20T09:13:36.619Z,100764.64
2018-12-20T09:16:04.079Z,100763.75
2018-12-20T09:18:31.540Z,100764.61
2018-12-20T09:20:59.032Z,100766.80
2018-12-20T09:23:26.572Z,100774.95
2018-12-20T09:25:55.339Z,100772.45
2018-12-20T09:28:22.863Z,100772.47
2018-12-20T09:30:50.458Z,100772.12
2018-12-20T09:33:18.013Z,100765.75
2018-12-20T09:35:45.488Z,100766.61
2018-12-20T09:38:13.536Z,100764.83
2018-12-20T09:40:41.035Z,100766.94
2018-12-20T09:43:08.642Z,100763.53
2018-12-20T09:45:36.225Z,100766.53
2018-12-20T09:48:06.035Z,100770.80
2018-12-20T09:50:33.663Z,100775.98
2018-12-20T09:53:01.205Z,100776.31
2018-12-20T09:55:28.711Z,100775.39
2018-12-20T09:57:56.439Z,100778.31
2018-12-20T10:00:23.889Z,100770.61
2018-12-20T10:02:51.407Z,100768.95
2018-12-20T10:05:18.872Z,100766.39
2018-12-20T10:07:46.341Z,100766.06
2018-12-20T10:10:14.042Z,100760.60
2018-12-20T10:12:41.810Z,100753.48
2018-12-20T10:15:09.833Z,100742.84
2018-12-20T10:17:37.578Z,100748.86
2018-12-20T10:20:06.862Z,100747.57
2018-12-20T10:22:34.479Z,100750.59
2018-12-20T10:25:01.949Z,100741.64
2018-12-20T10:27:31.565Z,100749.76
2018-12-20T10:29:59.103Z,100742.53
2018-12-20T10:32:26.639Z,100745.51
2018-12-20T10:34:54.163Z,100742.13
2018-12-20T10:37:21.665Z,100739.97
2018-12-20T10:39:49.113Z,100739.98
2018-12-20T10:42:16.565Z,100734.90
2018-12-20T10:44:44.847Z,100739.16
2018-12-20T10:47:18.123Z,100740.85
2018-12-20T10:49:45.639Z,100731.94
2018-12-20T10:52:13.259Z,100731.13
2018-12-20T10:54:41.331Z,100731.96
2018-12-20T10:57:09.151Z,100727.70
2018-12-20T10:59:36.837Z,100727.73
2018-12-20T11:02:10.122Z,100728.15
2018-12-20T11:04:43.355Z,100723.91
2018-12-20T11:07:16.334Z,100722.65
2018-12-20T11:09:49.478Z,100712.80
2018-12-20T11:15:15.939Z,100712.88
2018-12-20T11:17:43.465Z,100714.13
2018-12-20T11:20:18.832Z,100712.45
2018-12-20T11:22:46.503Z,100707.31
2018-12-20T11:25:14.692Z,100700.06
2018-12-20T11:27:42.193Z,100698.78
2018-12-20T11:30:09.889Z,100694.98
2018-12-20T11:32:37.596Z,100692.00
2018-12-20T11:35:05.637Z,100692.46
2018-12-20T11:37:33.146Z,100692.44
2018-12-20T11:40:00.684Z,100689.47
2018-12-20T11:42:28.203Z,100683.48
2018-12-20T11:44:55.715Z,100692.42
2018-12-20T11:47:27.615Z,100686.86
2018-12-20T11:49:55.164Z,100681.78
2018-12-20T11:52:22.835Z,100688.23
2018-12-20T11:54:50.486Z,100690.38
2018-12-20T11:57:18.094Z,100691.69
2018-12-20T11:59:45.732Z,100687.84
2018-12-20T12:02:13.206Z,100697.26
2018-12-20T12:04:40.678Z,100692.17
2018-12-20T12:07:08.271Z,100689.63
2018-12-20T12:09:35.787Z,100686.63
2018-12-20T12:12:03.673Z,100684.92
2018-12-20T12:14:31.176Z,100679.84
2018-12-20T12:16:58.802Z,100676.85
2018-12-20T12:19:26.398Z,100680.70
2018-12-20T12:21:53.922Z,100675.19
2018-12-20T12:24:21.392Z,100671.77
2018-12-20T12:26:48.890Z,100677.30
2018-12-20T12:29:16.397Z,100668.78
2018-12-20T12:31:43.949Z,100669.19
2018-12-20T12:34:11.599Z,100670.48
2018-12-20T12:36:40.152Z,100675.20
2018-12-20T12:39:07.849Z,100679.48
2018-12-20T12:41:35.416Z,100672.65
2018-12-20T12:44:02.938Z,100671.37
2018-12-20T12:46:31.062Z,100673.98
2018-12-20T12:48:58.632Z,100671.41
2018-12-20T12:51:26.138Z,100672.25
2018-12-20T12:53:53.681Z,100675.24
2018-12-20T12:56:21.268Z,100671.81
2018-12-20T12:58:48.722Z,100669.66
2018-12-20T13:01:16.220Z,100665.38
2018-12-20T13:03:43.687Z,100668.38
2018-12-20T13:06:11.153Z,100667.13
2018-12-20T13:08:38.675Z,100672.27
2018-12-20T13:11:06.276Z,100672.25
2018-12-20T13:13:33.831Z,100667.98
2018-12-20T13:16:01.434Z,100664.16
2018-12-20T13:18:28.917Z,100668.41
2018-12-20T13:20:56.371Z,100671.86
2018-12-20T13:23:25.659Z,100673.14
2018-12-20T13:25:53.330Z,100670.60
2018-12-20T13:28:20.830Z,100664.20
2018-12-20T13:30:49.229Z,100674.00
2018-12-20T13:33:16.694Z,100675.71
2018-12-20T13:35:44.176Z,100670.17
2018-12-20T13:38:12.019Z,100666.78
2018-12-20T13:40:39.498Z,100668.48
2018-12-20T13:43:07.026Z,100668.52
2018-12-20T13:45:34.500Z,100668.11
2018-12-20T13:48:01.976Z,100671.08
2018-12-20T13:50:29.457Z,100664.70
2018-12-20T13:52:56.946Z,100668.11
2018-12-20T13:55:24.445Z,100672.80
2018-12-20T13:57:51.931Z,100678.80
2018-12-20T14:00:19.465Z,100677.92
2018-12-20T14:02:47.737Z,100681.35
2018-12-20T14:05:16.228Z,100677.09
2018-12-20T14:07:43.958Z,100671.96
2018-12-20T14:10:11.706Z,100667.71
2018-12-20T14:12:39.169Z,100671.96
2018-12-20T14:15:07.237Z,100669.81
2018-12-20T14:17:34.703Z,100662.12
2018-12-20T14:20:02.290Z,100662.12
2018-12-20T14:22:29.782Z,100661.67
2018-12-20T14:24:57.322Z,100672.34
2018-12-20T14:27:24.748Z,100678.33
2018-12-20T14:29:52.225Z,100676.59
2018-12-20T14:32:19.775Z,100677.87
2018-12-20T14:34:48.131Z,100678.31
2018-12-20T14:37:15.793Z,100680.86
2018-12-20T14:39:44.268Z,100678.72
2018-12-20T14:42:11.768Z,100672.28
2018-12-20T14:44:39.281Z,100678.28
2018-12-20T14:47:07.571Z,100679.11
2018-12-20T14:49:35.018Z,100678.69
2018-12-20T14:54:36.250Z,100676.55
2018-12-20T14:57:03.749Z,100679.53
2018-12-20T14:59:32.419Z,100682.10
2018-12-20T15:02:00.038Z,100678.27
2018-12-20T15:04:27.548Z,100674.41
2018-12-20T15:06:55.106Z,100671.44
2018-12-20T15:09:22.764Z,100674.83
2018-12-20T15:11:50.207Z,100682.52
2018-12-20T15:14:17.657Z,100677.81
2018-12-20T15:16:45.656Z,100678.66
2018-12-20T15:19:13.241Z,100684.22
2018-12-20T15:21:40.676Z,100687.63
2018-12-20T15:24:08.171Z,100684.19
2018-12-20T15:26:35.811Z,100688.48
2018-12-20T15:29:03.415Z,100687.61
2018-12-20T15:31:31.102Z,100689.32
2018-12-20T15:33:58.959Z,100683.33
2018-12-20T15:36:26.540Z,100690.16
2018-12-20T15:38:55.226Z,100687.98
2018-12-20T15:41:22.721Z,100702.92
2018-12-20T15:43:50.211Z,100691.83
2018-12-20T15:46:17.664Z,100694.37
2018-12-20T15:48:45.145Z,100685.39
2018-12-20T15:51:12.578Z,100693.11
2018-12-20T15:53:40.064Z,100695.21
2018-12-20T15:56:07.528Z,100694.34
2018-12-20T15:58:35.240Z,100697.34
2018-12-20T16:01:02.815Z,100694.77
2018-12-20T16:03:30.563Z,100699.87
2018-12-20T16:05:58.367Z,100693.03
2018-12-20T16:08:25.841Z,100691.73
2018-12-20T16:10:53.355Z,100699.00
2018-12-20T16:13:20.868Z,100692.58
2018-12-20T16:15:48.409Z,100692.13
2018-12-20T16:18:15.907Z,100697.28
2018-12-20T16:20:43.359Z,100698.55
2018-12-20T16:23:10.834Z,100702.00
2018-12-20T16:25:38.490Z,100698.59
2018-12-20T16:28:06.112Z,100702.84
2018-12-20T16:30:34.227Z,100702.42
2018-12-20T16:33:01.726Z,100700.72
2018-12-20T16:35:29.160Z,100699.36
2018-12-20T16:37:56.664Z,100701.46
2018-12-20T16:40:24.176Z,100700.98
2018-12-20T16:42:51.673Z,100710.80
2018-12-20T16:45:19.262Z,100707.31
2018-12-20T16:47:46.829Z,100712.41
2018-12-20T16:50:14.376Z,100716.27
2018-12-20T16:52:41.897Z,100712.48
2018-12-20T16:55:09.471Z,100710.76
2018-12-20T16:57:37.602Z,100707.73
2018-12-20T17:00:08.938Z,100698.73
2018-12-20T17:02:36.859Z,100703.42
2018-12-20T17:05:04.635Z,100699.53
2018-12-20T17:07:32.164Z,100705.98
2018-12-20T17:09:59.669Z,100713.27
2018-12-20T17:12:27.146Z,100710.30
2018-12-20T17:14:54.600Z,100705.20
2018-12-20T17:17:22.874Z,100707.36
2018-12-20T17:19:50.398Z,100704.83
2018-12-20T17:22:18.121Z,100704.44
2018-12-20T17:24:45.744Z,100700.19
2018-12-20T17:27:13.642Z,100698.08
2018-12-20T17:29:41.322Z,100699.83
2018-12-20T17:32:08.781Z,100701.54
2018-12-20T17:34:36.365Z,100702.83
2018-12-20T17:37:03.903Z,100701.55
2018-12-20T17:39:31.392Z,100707.12
2018-12-20T17:41:58.843Z,100707.56
2018-12-20T17:44:26.326Z,100704.13
2018-12-20T17:46:53.832Z,100709.28
2018-12-20T17:49:21.457Z,100697.77
2018-12-20T17:51:49.038Z,100707.57
2018-12-20T17:54:16.562Z,100703.31
2018-12-20T17:56:43.999Z,100699.04
2018-12-20T17:59:11.477Z,100705.46
2018-12-20T18:01:40.246Z,100702.05
2018-12-20T18:04:07.831Z,100712.32
2018-12-20T18:06:35.400Z,100711.45
2018-12-20T18:09:02.940Z,100708.47
2018-12-20T18:11:30.437Z,100714.48
2018-12-20T18:13:58.223Z,100716.16
2018-12-20T18:16:25.719Z,100714.91
2018-12-20T18:18:53.403Z,100708.08
2018-12-20T18:21:20.995Z,100712.35
2018-12-20T18:23:48.825Z,100713.66
2018-12-20T18:26:16.350Z,100714.08
2018-12-20T18:28:43.796Z,100711.48
2018-12-20T18:31:11.236Z,100714.94
2018-12-20T18:33:39.464Z,100714.91
2018-12-20T18:36:06.989Z,100714.52
2018-12-20T18:38:34.690Z,100724.75
2018-12-20T18:41:02.195Z,100712.38
2018-12-20T18:43:29.814Z,100721.34
2018-12-20T18:45:57.412Z,100721.34
2018-12-20T18:48:25.078Z,100713.22
2018-12-20T18:50:52.631Z,100716.20
2018-12-20T18:53:20.107Z,100719.59
2018-12-20T18:55:47.633Z,100711.06
2018-12-20T18:58:15.105Z,100711.91
2018-12-20T19:00:42.573Z,100719.59
2018-12-20T19:03:10.132Z,100712.73
2018-12-20T19:05:37.675Z,100711.86
2018-12-20T19:08:06.166Z,100713.13
2018-12-20T19:10:33.856Z,100718.67
2018-12-20T19:13:01.453Z,100718.67
2018-12-20T19:15:29.168Z,100714.42
2018-12-20T19:17:57.104Z,100710.98
2018-12-20T19:20:24.594Z,100712.27
2018-12-20T19:22:52.092Z,100705.44
2018-12-20T19:25:19.691Z,100708.88
2018-12-20T19:27:47.183Z,100707.14
2018-12-20T19:30:14.713Z,100703.28
2018-12-20T19:32:42.180Z,100708.02
2018-12-20T19:35:09.724Z,100706.27
2018-12-20T19:37:37.291Z,100711.41
2018-12-20T19:40:07.803Z,100711.45
2018-12-20T19:42:35.686Z,100706.47
2018-12-20T19:45:03.347Z,100704.38
2018-12-20T19:47:30.920Z,100696.64
2018-12-20T19:52:31.411Z,100701.72
2018-12-20T19:54:58.916Z,100697.83
2018-12-20T19:57:26.546Z,100701.23
2018-12-20T19:59:54.055Z,100708.05
2018-12-20T20:02:21.659Z,100707.61
2018-12-20T20:04:49.148Z,100706.33
2018-12-20T20:07:17.436Z,100703.75
2018-12-20T20:09:45.880Z,100702.05
2018-12-20T20:12:13.473Z,100709.30
2018-12-20T20:14:41.515Z,100710.99
2018-12-20T20:17:09.193Z,100707.60
2018-12-20T20:19:36.687Z,100706.73
2018-12-20T20:22:04.166Z,100699.06
2018-12-20T20:24:31.641Z,100698.66
2018-12-20T20:26:59.158Z,100699.52
2018-12-20T20:29:27.433Z,100702.89
2018-12-20T20:31:55.097Z,100699.48
2018-12-20T20:34:22.738Z,100696.06
2018-12-20T20:36:50.448Z,100695.63
2018-12-20T20:39:18.015Z,100694.34
2018-12-20T20:41:45.816Z,100695.22
2018-12-20T20:44:13.375Z,100696.03
2018-12-20T20:46:40.879Z,100692.60
2018-12-20T20:49:08.344Z,100689.62
2018-12-20T20:51:36.222Z,100675.09
2018-12-20T20:54:03.768Z,100676.78
2018-12-20T20:56:31.427Z,100678.94
2018-12-20T20:58:59.043Z,100686.61
2018-12-20T21:01:26.566Z,100685.34
2018-12-20T21:03:54.165Z,100680.63
2018-12-20T21:06:22.688Z,100680.65
2018-12-20T21:08:50.189Z,100681.09
2018-12-20T21:11:17.947Z,100677.23
2018-12-20T21:13:45.400Z,100681.94
2018-12-20T21:16:12.956Z,100681.55
2018-12-20T21:18:40.477Z,100688.39
2018-12-20T21:21:07.940Z,100678.99
2018-12-20T21:23:35.446Z,100672.14
2018-12-20T21:26:03.914Z,100681.11
2018-12-20T21:28:31.579Z,100678.97
2018-12-20T21:30:59.284Z,100681.98
2018-12-20T21:33:26.894Z,100675.13
2018-12-20T21:35:54.412Z,100684.52
2018-12-20T21:38:21.947Z,100682.79
2018-12-20T21:40:49.511Z,100682.36
2018-12-20T21:43:16.997Z,100678.98
2018-12-20T21:45:44.480Z,100676.40
2018-12-20T21:48:11.972Z,100680.67
2018-12-20T21:50:39.689Z,100675.50
2018-12-20T21:53:07.318Z,100689.22
2018-12-20T21:55:35.295Z,100688.34
2018-12-20T21:58:02.946Z,100691.77
2018-12-20T22:00:30.507Z,100695.20
2018-12-20T22:02:58.255Z,100689.23
2018-12-20T22:05:25.777Z,100691.77
2018-12-20T22:07:55.059Z,100690.49
2018-12-20T22:10:22.555Z,100689.23
2018-12-20T22:12:50.043Z,100685.76
2018-12-20T22:15:17.555Z,100688.31
2018-12-20T22:17:45.036Z,100687.89
2018-12-20T22:20:12.548Z,100680.63
2018-12-20T22:22:40.076Z,100680.20
2018-12-20T22:25:08.001Z,100680.65
2018-12-20T22:27:36.209Z,100680.25
2018-12-20T22:30:04.712Z,100682.35
2018-12-20T22:32:32.454Z,100672.09
2018-12-20T22:35:00.190Z,100675.09
2018-12-20T22:37:28.557Z,100675.06
2018-12-20T22:39:56.011Z,100673.35
2018-12-20T22:42:23.505Z,100679.75
2018-12-20T22:44:50.964Z,100679.77
2018-12-20T22:47:18.518Z,100670.38
2018-12-20T22:49:46.168Z,100670.84
2018-12-20T22:52:14.382Z,100673.84
2018-12-20T22:54:42.240Z,100676.39
2018-12-20T22:57:09.801Z,100675.54
2018-12-20T22:59:37.600Z,100668.73
2018-12-20T23:02:05.368Z,100667.00
2018-12-20T23:04:33.047Z,100661.45
2018-12-20T23:07:00.531Z,100661.03
2018-12-20T23:09:28.028Z,100665.31
2018-12-20T23:11:55.561Z,100663.17
2018-12-20T23:14:23.163Z,100661.89
2018-12-20T23:16:53.820Z,100658.03
2018-12-20T23:19:21.859Z,100658.48
2018-12-20T23:21:49.373Z,100654.23
2018-12-20T23:24:16.951Z,100655.48
2018-12-20T23:26:59.741Z,100660.55
2018-12-20T23:29:27.490Z,100650.74
2018-12-20T23:31:55.048Z,100652.03
2018-12-20T23:34:22.623Z,100649.47
2018-12-20T23:36:50.178Z,100652.91
2018-12-20T23:39:17.654Z,100649.50
2018-12-20T23:41:45.143Z,100644.83
2018-12-20T23:44:12.601Z,100646.96
2018-12-20T23:46:40.237Z,100636.30
2018-12-20T23:49:07.740Z,100634.99
2018-12-20T23:51:35.177Z,100630.73
2018-12-20T23:54:02.737Z,100633.31
2018-12-20T23:56:30.228Z,100626.89
2018-12-20T23:58:57.841Z,100620.06
